createdAt,value
2022-12-06T00:01:08.945Z,41.06
2022-12-06T00:03:37.814Z,41.00
2022-12-06T00:06:09.613Z,41.01
2022-12-06T00:08:38.176Z,41.07
2022-12-06T00:11:07.918Z,41.01
2022-12-06T00:13:36.366Z,41.05
2022-12-06T00:16:05.503Z,41.02
2022-12-06T00:18:36.177Z,41.01
2022-12-06T00:21:09.617Z,41.04
2022-12-06T00:23:38.845Z,40.81
2022-12-06T00:26:08.012Z,40.99
2022-12-06T00:28:36.457Z,40.95
2022-12-06T00:31:06.818Z,40.92
2022-12-06T00:33:37.104Z,40.84
2022-12-06T00:36:07.148Z,41.03
2022-12-06T00:38:36.558Z,40.91
2022-12-06T00:41:06.568Z,41.02
2022-12-06T00:43:35.261Z,40.95
2022-12-06T00:46:04.486Z,40.91
2022-12-06T00:48:32.927Z,40.98
2022-12-06T00:51:02.695Z,41.04
2022-12-06T00:53:31.250Z,41.00
2022-12-06T00:55:59.607Z,40.84
2022-12-06T00:58:28.021Z,40.82
2022-12-06T01:00:56.621Z,40.78
2022-12-06T01:03:25.127Z,40.80
2022-12-06T01:05:53.546Z,40.79
2022-12-06T01:08:23.448Z,40.84
2022-12-06T01:10:55.024Z,40.79
2022-12-06T01:13:23.480Z,40.89
2022-12-06T01:15:52.017Z,40.89
2022-12-06T01:18:20.463Z,40.71
2022-12-06T01:20:49.108Z,40.85
2022-12-06T01:23:17.575Z,40.70
2022-12-06T01:25:52.634Z,40.72
2022-12-06T01:28:21.266Z,40.75
2022-12-06T01:30:49.946Z,40.61
2022-12-06T01:33:18.384Z,40.64
2022-12-06T01:35:46.917Z,40.70
2022-12-06T01:38:15.348Z,40.63
2022-12-06T01:40:45.988Z,40.75
2022-12-06T01:43:36.562Z,40.80
2022-12-06T01:46:12.462Z,40.64
2022-12-06T01:48:41.467Z,40.72
2022-12-06T01:51:10.555Z,40.58
2022-12-06T01:53:39.076Z,40.74
2022-12-06T01:56:08.530Z,40.59
2022-12-06T01:58:40.780Z,40.58
2022-12-06T02:01:09.690Z,40.68
2022-12-06T02:03:38.294Z,40.73
2022-12-06T02:06:08.370Z,40.50
2022-12-06T02:08:37.288Z,40.58
2022-12-06T02:11:05.768Z,40.69
2022-12-06T02:13:34.987Z,40.72
2022-12-06T02:16:14.954Z,40.61
2022-12-06T02:18:48.627Z,40.65
2022-12-06T02:21:22.107Z,40.83
2022-12-06T02:24:23.528Z,40.56
2022-12-06T02:26:53.082Z,40.62
2022-12-06T02:29:39.410Z,40.55
2022-12-06T02:32:11.445Z,40.58
2022-12-06T02:34:45.544Z,40.58
2022-12-06T02:37:16.072Z,40.59
2022-12-06T02:39:48.033Z,40.54
2022-12-06T02:42:18.973Z,40.48
2022-12-06T02:44:48.988Z,40.53
2022-12-06T02:47:19.885Z,40.65
2022-12-06T02:49:50.190Z,40.52
2022-12-06T02:52:19.802Z,40.61
2022-12-06T02:54:48.967Z,40.58
2022-12-06T02:57:17.483Z,40.57
2022-12-06T02:59:55.359Z,40.44
2022-12-06T03:02:25.534Z,40.44
2022-12-06T03:05:10.435Z,40.65
2022-12-06T03:07:41.728Z,40.53
2022-12-06T03:10:23.923Z,40.45
2022-12-06T03:12:57.551Z,40.42
2022-12-06T03:15:34.449Z,40.37
2022-12-06T03:18:09.520Z,40.54
2022-12-06T03:20:43.079Z,40.47
2022-12-06T03:23:14.711Z,40.41
2022-12-06T03:25:43.440Z,40.39
2022-12-06T03:28:13.091Z,40.48
2022-12-06T03:30:41.666Z,40.38
2022-12-06T03:33:11.661Z,40.46
2022-12-06T03:35:40.058Z,40.38
2022-12-06T03:38:10.380Z,40.30
2022-12-06T03:40:40.501Z,40.41
2022-12-06T03:43:08.964Z,40.44
2022-12-06T03:45:40.927Z,40.43
2022-12-06T03:48:12.347Z,40.53
2022-12-06T03:50:43.014Z,40.39
2022-12-06T03:53:11.512Z,40.39
2022-12-06T03:55:39.922Z,40.49
2022-12-06T03:58:08.261Z,40.34
2022-12-06T04:00:36.722Z,40.44
2022-12-06T04:03:05.225Z,40.36
2022-12-06T04:05:35.122Z,40.42
2022-12-06T04:08:03.676Z,40.34
2022-12-06T04:10:32.085Z,40.36
2022-12-06T04:13:03.057Z,40.36
2022-12-06T04:15:33.669Z,40.39
2022-12-06T04:18:18.621Z,40.32
2022-12-06T04:21:07.596Z,40.51
2022-12-06T04:23:37.418Z,40.49
2022-12-06T04:26:07.314Z,40.35
2022-12-06T04:28:52.922Z,40.41
2022-12-06T04:31:39.425Z,40.41
2022-12-06T04:34:25.219Z,40.24
2022-12-06T04:37:12.634Z,40.31
2022-12-06T04:39:41.093Z,40.36
2022-12-06T04:42:27.392Z,40.22
2022-12-06T04:44:55.774Z,40.33
2022-12-06T04:47:24.462Z,40.38
2022-12-06T04:49:53.467Z,40.38
2022-12-06T04:52:23.370Z,40.39
2022-12-06T04:54:51.859Z,40.22
2022-12-06T04:57:20.361Z,40.44
2022-12-06T04:59:49.452Z,40.29
2022-12-06T05:02:17.928Z,40.25
2022-12-06T05:04:46.424Z,40.35
2022-12-06T05:07:14.908Z,40.24
2022-12-06T05:09:44.799Z,40.25
2022-12-06T05:12:13.189Z,40.22
2022-12-06T05:14:41.597Z,40.17
2022-12-06T05:17:10.128Z,40.32
2022-12-06T05:19:38.524Z,40.25
2022-12-06T05:22:07.027Z,40.33
2022-12-06T05:24:35.791Z,40.25
2022-12-06T05:27:05.690Z,40.26
2022-12-06T05:29:34.184Z,40.09
2022-12-06T05:32:02.706Z,40.29
2022-12-06T05:34:31.146Z,40.14
2022-12-06T05:36:59.553Z,40.28
2022-12-06T05:39:29.340Z,40.36
2022-12-06T05:41:57.743Z,40.31
2022-12-06T05:44:27.547Z,40.22
2022-12-06T05:46:56.279Z,40.12
2022-12-06T05:49:24.700Z,40.33
2022-12-06T05:51:53.100Z,40.21
2022-12-06T05:54:21.768Z,40.21
2022-12-06T05:56:50.760Z,40.17
2022-12-06T05:59:19.208Z,40.33
2022-12-06T06:01:49.224Z,40.24
2022-12-06T06:04:17.637Z,40.26
2022-12-06T06:06:45.988Z,40.15
2022-12-06T06:09:14.613Z,40.22
2022-12-06T06:11:43.042Z,40.26
2022-12-06T06:14:11.685Z,40.27
2022-12-06T06:16:40.196Z,40.22
2022-12-06T06:19:09.981Z,40.19
2022-12-06T06:21:38.337Z,40.17
2022-12-06T06:24:08.015Z,40.18
2022-12-06T06:26:36.409Z,40.31
2022-12-06T06:29:04.897Z,40.32
2022-12-06T06:31:33.385Z,40.17
2022-12-06T06:34:01.901Z,40.19
2022-12-06T06:36:31.761Z,40.20
2022-12-06T06:39:00.269Z,40.09
2022-12-06T06:41:28.645Z,40.15
2022-12-06T06:43:58.792Z,40.20
2022-12-06T06:46:27.445Z,40.23
2022-12-06T06:48:55.817Z,40.22
2022-12-06T06:51:24.387Z,40.19
2022-12-06T06:53:54.128Z,40.33
2022-12-06T06:56:22.444Z,40.35
2022-12-06T06:58:51.298Z,40.30
2022-12-06T07:01:22.192Z,40.45
2022-12-06T07:03:50.930Z,40.35
2022-12-06T07:06:19.338Z,40.36
2022-12-06T07:08:47.976Z,40.39
2022-12-06T07:11:17.743Z,40.52
2022-12-06T07:13:51.249Z,40.55
2022-12-06T07:16:21.294Z,40.72
2022-12-06T07:18:49.762Z,40.61
2022-12-06T07:21:18.313Z,40.46
2022-12-06T07:23:46.871Z,40.54
2022-12-06T07:26:18.459Z,40.86
2022-12-06T07:28:48.051Z,40.60
2022-12-06T07:31:18.324Z,40.89
2022-12-06T07:33:47.057Z,40.90
2022-12-06T07:36:16.443Z,41.29
2022-12-06T07:38:44.993Z,40.67
2022-12-06T07:41:32.186Z,40.74
2022-12-06T07:44:20.621Z,40.86
2022-12-06T07:46:50.030Z,41.04
2022-12-06T07:49:19.120Z,40.80
2022-12-06T07:51:47.651Z,41.03
2022-12-06T07:54:16.774Z,41.23
2022-12-06T07:56:45.353Z,41.16
2022-12-06T07:59:15.367Z,41.09
2022-12-06T08:01:43.884Z,41.11
2022-12-06T08:04:12.523Z,41.05
2022-12-06T08:06:41.118Z,40.99
2022-12-06T08:09:09.919Z,40.93
2022-12-06T08:11:38.368Z,40.90
2022-12-06T08:14:06.968Z,40.79
2022-12-06T08:16:36.738Z,40.95
2022-12-06T08:19:05.191Z,40.95
2022-12-06T08:21:33.823Z,40.84
2022-12-06T08:24:04.256Z,40.99
2022-12-06T08:26:32.643Z,40.85
2022-12-06T08:29:02.274Z,41.00
2022-12-06T08:31:31.559Z,41.23
2022-12-06T08:34:01.329Z,41.21
2022-12-06T08:36:29.780Z,41.11
2022-12-06T08:38:59.846Z,41.37
2022-12-06T08:41:45.547Z,41.02
2022-12-06T08:44:15.266Z,40.99
2022-12-06T08:46:43.819Z,41.24
2022-12-06T08:49:13.968Z,41.95
2022-12-06T08:51:42.637Z,41.58
2022-12-06T08:54:14.229Z,41.06
2022-12-06T08:56:42.794Z,41.21
2022-12-06T08:59:11.376Z,41.23
2022-12-06T09:01:40.107Z,41.11
2022-12-06T09:04:09.798Z,41.43
2022-12-06T09:06:40.954Z,41.48
2022-12-06T09:09:10.070Z,41.11
2022-12-06T09:11:38.997Z,41.14
2022-12-06T09:14:09.198Z,41.19
2022-12-06T09:16:38.059Z,41.26
2022-12-06T09:19:06.536Z,41.24
2022-12-06T09:21:35.135Z,41.18
2022-12-06T09:24:05.431Z,41.18
2022-12-06T09:26:34.143Z,41.22
2022-12-06T09:29:02.594Z,41.20
2022-12-06T09:31:31.182Z,41.27
2022-12-06T09:33:59.650Z,41.26
2022-12-06T09:36:29.002Z,41.28
2022-12-06T09:39:00.815Z,41.39
2022-12-06T09:41:54.932Z,41.25
2022-12-06T09:44:39.659Z,41.27
2022-12-06T09:47:16.573Z,41.25
2022-12-06T09:49:50.185Z,41.29
2022-12-06T09:52:34.654Z,41.36
2022-12-06T09:55:16.980Z,41.28
2022-12-06T09:57:51.530Z,41.33
2022-12-06T10:00:23.171Z,41.21
2022-12-06T10:03:29.130Z,41.21
2022-12-06T10:06:02.888Z,41.30
2022-12-06T10:09:10.070Z,41.19
2022-12-06T10:11:56.744Z,41.40
2022-12-06T10:14:39.220Z,41.25
2022-12-06T10:17:13.403Z,41.23
2022-12-06T10:19:51.740Z,41.32
2022-12-06T10:22:26.449Z,41.29
2022-12-06T10:25:00.977Z,41.19
2022-12-06T10:27:35.581Z,41.38
2022-12-06T10:30:06.689Z,41.38
2022-12-06T10:32:51.485Z,41.33
2022-12-06T10:35:26.008Z,41.30
2022-12-06T10:38:05.062Z,41.39
2022-12-06T10:40:46.424Z,41.28
2022-12-06T10:43:18.884Z,41.45
2022-12-06T10:46:14.311Z,41.50
2022-12-06T10:48:45.470Z,41.24
2022-12-06T10:51:16.360Z,41.42
2022-12-06T10:53:48.259Z,41.32
2022-12-06T10:56:18.510Z,41.22
2022-12-06T10:58:50.593Z,41.40
2022-12-06T11:01:21.457Z,41.34
2022-12-06T11:03:57.040Z,41.30
2022-12-06T11:06:32.323Z,41.25
2022-12-06T11:09:06.037Z,41.37
2022-12-06T11:11:36.461Z,41.29
2022-12-06T11:14:07.698Z,41.34
2022-12-06T11:16:40.392Z,41.31
2022-12-06T11:19:20.673Z,41.13
2022-12-06T11:21:53.624Z,41.09
2022-12-06T11:24:26.846Z,41.17
2022-12-06T11:27:00.351Z,41.13
2022-12-06T11:29:29.212Z,41.11
2022-12-06T11:32:00.879Z,41.29
2022-12-06T11:34:32.773Z,41.12
2022-12-06T11:37:01.287Z,41.24
2022-12-06T11:39:30.139Z,41.18
2022-12-06T11:42:00.793Z,41.13
2022-12-06T11:44:44.950Z,41.01
2022-12-06T11:47:21.834Z,41.23
2022-12-06T11:49:51.093Z,41.09
2022-12-06T11:52:23.234Z,41.19
2022-12-06T11:54:55.822Z,41.21
2022-12-06T11:57:26.770Z,41.13
2022-12-06T12:00:18.017Z,41.08
2022-12-06T12:02:49.566Z,41.18
2022-12-06T12:05:22.432Z,41.39
2022-12-06T12:07:55.397Z,41.52
2022-12-06T12:10:34.653Z,41.60
2022-12-06T12:13:36.151Z,41.38
2022-12-06T12:16:07.430Z,41.33
2022-12-06T12:18:38.640Z,41.61
2022-12-06T12:21:07.783Z,41.58
2022-12-06T12:23:39.498Z,41.40
2022-12-06T12:26:13.457Z,41.50
2022-12-06T12:28:42.155Z,41.71
2022-12-06T12:31:11.953Z,41.57
2022-12-06T12:33:41.883Z,41.73
2022-12-06T12:36:16.636Z,41.37
2022-12-06T12:38:52.132Z,41.29
2022-12-06T12:41:29.756Z,41.36
2022-12-06T12:44:28.820Z,41.49
2022-12-06T12:46:52.359Z,41.44
2022-12-06T12:49:30.282Z,41.44
2022-12-06T12:51:59.105Z,41.61
2022-12-06T12:54:32.812Z,41.74
2022-12-06T12:57:02.639Z,41.51
2022-12-06T12:59:36.789Z,41.47
2022-12-06T13:02:12.823Z,41.56
2022-12-06T13:04:44.438Z,41.52
2022-12-06T13:07:18.893Z,41.70
2022-12-06T13:09:54.766Z,41.62
2022-12-06T13:12:29.337Z,41.61
2022-12-06T13:15:01.612Z,41.79
2022-12-06T13:17:30.584Z,41.50
2022-12-06T13:20:00.892Z,41.61
2022-12-06T13:22:32.305Z,41.53
2022-12-06T13:25:02.960Z,41.69
2022-12-06T13:27:35.168Z,41.53
2022-12-06T13:30:05.986Z,41.68
2022-12-06T13:32:38.896Z,41.62
2022-12-06T13:35:19.301Z,41.70
2022-12-06T13:37:53.245Z,41.50
2022-12-06T13:40:49.556Z,41.76
2022-12-06T13:44:00.433Z,41.67
2022-12-06T13:46:33.723Z,41.89
2022-12-06T13:49:21.964Z,41.91
2022-12-06T13:51:51.857Z,41.99
2022-12-06T13:54:38.138Z,41.89
2022-12-06T13:57:27.312Z,41.96
2022-12-06T13:59:55.944Z,41.92
2022-12-06T14:02:51.683Z,41.95
2022-12-06T14:06:05.995Z,41.77
2022-12-06T14:08:40.770Z,41.76
2022-12-06T14:11:20.677Z,41.63
2022-12-06T14:13:50.820Z,41.77
2022-12-06T14:16:23.531Z,41.78
2022-12-06T14:18:52.131Z,41.62
2022-12-06T14:21:27.566Z,41.77
2022-12-06T14:23:57.600Z,41.67
2022-12-06T14:26:27.514Z,41.64
2022-12-06T14:28:57.210Z,41.61
2022-12-06T14:31:29.326Z,41.56
2022-12-06T14:33:58.112Z,41.62
2022-12-06T14:36:29.526Z,41.45
2022-12-06T14:39:02.696Z,41.37
2022-12-06T14:41:51.506Z,41.40
2022-12-06T14:44:20.787Z,41.77
2022-12-06T14:46:50.176Z,41.61
2022-12-06T14:49:38.882Z,41.45
2022-12-06T14:52:25.556Z,41.67
2022-12-06T14:55:17.654Z,41.56
2022-12-06T14:57:47.252Z,41.47
2022-12-06T15:00:26.477Z,41.54
2022-12-06T15:03:29.246Z,41.52
2022-12-06T15:06:14.089Z,41.50
2022-12-06T15:08:43.155Z,41.65
2022-12-06T15:11:48.957Z,41.66
2022-12-06T15:14:19.090Z,41.59
2022-12-06T15:16:57.273Z,41.50
2022-12-06T15:19:25.888Z,41.50
2022-12-06T15:21:54.607Z,41.45
2022-12-06T15:24:24.214Z,41.29
2022-12-06T15:26:54.227Z,41.39
2022-12-06T15:29:22.873Z,41.47
2022-12-06T15:31:54.212Z,41.52
2022-12-06T15:34:28.007Z,41.48
2022-12-06T15:37:29.878Z,41.50
2022-12-06T15:39:45.205Z,41.52
2022-12-06T15:42:20.823Z,41.43
2022-12-06T15:44:50.215Z,41.54
2022-12-06T15:47:19.835Z,41.42
2022-12-06T15:49:51.120Z,41.49
2022-12-06T15:52:23.198Z,41.49
2022-12-06T15:54:52.153Z,41.37
2022-12-06T15:57:22.038Z,41.44
2022-12-06T15:59:50.662Z,41.47
2022-12-06T16:02:19.685Z,41.68
2022-12-06T16:04:51.086Z,41.51
2022-12-06T16:07:19.855Z,41.64
2022-12-06T16:09:49.057Z,41.62
2022-12-06T16:12:17.674Z,41.51
2022-12-06T16:14:47.954Z,41.72
2022-12-06T16:17:16.511Z,42.07
2022-12-06T16:20:02.305Z,41.81
2022-12-06T16:22:48.156Z,41.74
2022-12-06T16:25:16.721Z,41.42
2022-12-06T16:27:45.289Z,41.50
2022-12-06T16:30:16.627Z,41.33
2022-12-06T16:32:45.087Z,41.46
2022-12-06T16:35:13.539Z,41.68
2022-12-06T16:37:41.991Z,41.45
2022-12-06T16:40:14.295Z,41.76
2022-12-06T16:42:42.839Z,41.35
2022-12-06T16:45:12.364Z,41.30
2022-12-06T16:47:42.255Z,41.36
2022-12-06T16:50:11.501Z,41.33
2022-12-06T16:55:38.609Z,42.15
2022-12-06T16:58:07.759Z,41.40
2022-12-06T17:00:36.378Z,41.35
2022-12-06T17:03:06.418Z,41.18
2022-12-06T17:05:35.230Z,41.46
2022-12-06T17:08:03.995Z,41.37
2022-12-06T17:10:32.772Z,41.24
2022-12-06T17:13:02.139Z,41.28
2022-12-06T17:15:30.755Z,41.43
2022-12-06T17:17:59.285Z,41.41
2022-12-06T17:20:29.267Z,41.23
2022-12-06T17:22:58.458Z,41.32
2022-12-06T17:25:26.937Z,41.11
2022-12-06T17:27:55.615Z,41.35
2022-12-06T17:30:24.179Z,41.28
2022-12-06T17:32:52.710Z,41.21
2022-12-06T17:35:21.238Z,41.12
2022-12-06T17:37:52.958Z,41.22
2022-12-06T17:40:21.683Z,41.01
2022-12-06T17:43:01.424Z,41.30
2022-12-06T17:45:30.150Z,41.12
2022-12-06T17:47:58.824Z,41.26
2022-12-06T17:50:27.588Z,41.29
2022-12-06T17:56:26.757Z,41.70
2022-12-06T17:58:55.976Z,41.43
2022-12-06T18:01:24.727Z,40.88
2022-12-06T18:03:53.759Z,40.82
2022-12-06T18:06:22.838Z,41.10
2022-12-06T18:08:51.466Z,40.95
2022-12-06T18:11:20.049Z,40.93
2022-12-06T18:13:50.153Z,40.95
2022-12-06T18:16:20.340Z,40.98
2022-12-06T18:18:50.183Z,41.04
2022-12-06T18:21:18.986Z,40.80
2022-12-06T18:24:13.082Z,40.97
2022-12-06T18:26:36.789Z,40.76
2022-12-06T18:29:07.753Z,40.77
2022-12-06T18:31:37.071Z,40.93
2022-12-06T18:34:05.878Z,40.91
2022-12-06T18:36:34.680Z,40.91
2022-12-06T18:39:07.358Z,40.82
2022-12-06T18:41:38.169Z,40.75
2022-12-06T18:44:08.308Z,40.71
2022-12-06T18:46:38.057Z,40.77
2022-12-06T18:49:06.832Z,40.77
2022-12-06T18:51:36.524Z,40.80
2022-12-06T18:54:05.522Z,40.76
2022-12-06T18:56:34.482Z,40.94
2022-12-06T18:59:05.483Z,40.09
2022-12-06T19:01:37.209Z,40.46
2022-12-06T19:04:06.618Z,40.49
2022-12-06T19:06:36.801Z,40.59
2022-12-06T19:09:09.544Z,40.89
2022-12-06T19:11:39.475Z,40.72
2022-12-06T19:14:08.634Z,40.83
2022-12-06T19:16:40.873Z,40.82
2022-12-06T19:19:16.119Z,40.76
2022-12-06T19:21:45.743Z,40.73
2022-12-06T19:24:16.765Z,40.65
2022-12-06T19:26:45.754Z,40.89
2022-12-06T19:29:14.727Z,40.88
2022-12-06T19:31:44.717Z,40.99
2022-12-06T19:34:17.435Z,40.73
2022-12-06T19:36:46.216Z,40.84
2022-12-06T19:39:15.139Z,41.16
2022-12-06T19:42:01.141Z,41.24
2022-12-06T19:44:30.484Z,41.21
2022-12-06T19:47:00.401Z,41.21
2022-12-06T19:49:29.416Z,41.33
2022-12-06T19:51:58.103Z,41.53
2022-12-06T19:54:28.117Z,41.44
2022-12-06T19:56:58.353Z,41.24
2022-12-06T19:59:31.424Z,41.23
2022-12-06T20:02:01.551Z,41.36
2022-12-06T20:04:31.566Z,41.13
2022-12-06T20:07:00.196Z,41.77
2022-12-06T20:09:30.911Z,41.19
2022-12-06T20:12:03.764Z,41.25
2022-12-06T20:14:36.878Z,41.18
2022-12-06T20:17:08.349Z,41.24
2022-12-06T20:19:37.407Z,41.42
2022-12-06T20:22:05.848Z,41.39
2022-12-06T20:29:32.781Z,41.56
2022-12-06T20:32:01.799Z,41.68
2022-12-06T20:34:34.565Z,41.39
2022-12-06T20:37:04.786Z,41.18
2022-12-06T20:39:35.517Z,41.39
2022-12-06T20:42:06.042Z,41.19
2022-12-06T20:44:35.009Z,41.72
2022-12-06T20:47:03.699Z,41.31
2022-12-06T20:49:33.752Z,41.37
2022-12-06T20:52:03.731Z,41.58
2022-12-06T20:54:32.343Z,41.26
2022-12-06T20:57:02.067Z,41.21
2022-12-06T20:59:30.541Z,42.10
2022-12-06T21:01:59.150Z,41.32
2022-12-06T21:04:28.086Z,41.50
2022-12-06T21:06:58.367Z,41.42
2022-12-06T21:09:27.258Z,41.13
2022-12-06T21:11:58.033Z,41.07
2022-12-06T21:14:26.620Z,41.31
2022-12-06T21:16:55.636Z,41.05
2022-12-06T21:19:24.588Z,41.00
2022-12-06T21:21:57.265Z,41.08
2022-12-06T21:24:27.388Z,41.10
2022-12-06T21:26:56.196Z,41.06
2022-12-06T21:29:30.869Z,41.05
2022-12-06T21:32:02.286Z,41.45
2022-12-06T21:34:30.983Z,41.28
2022-12-06T21:36:59.972Z,41.05
2022-12-06T21:39:29.943Z,40.98
2022-12-06T21:41:58.675Z,41.02
2022-12-06T21:44:27.524Z,41.09
2022-12-06T21:46:56.181Z,41.13
2022-12-06T21:49:25.015Z,41.67
2022-12-06T21:52:00.340Z,41.19
2022-12-06T21:54:33.261Z,41.03
2022-12-06T21:57:02.041Z,41.15
2022-12-06T21:59:30.765Z,41.04
2022-12-06T22:01:59.543Z,41.33
2022-12-06T22:04:28.196Z,41.18
2022-12-06T22:06:57.331Z,41.50
2022-12-06T22:09:25.927Z,41.38
2022-12-06T22:11:56.000Z,41.59
2022-12-06T22:14:24.555Z,41.52
2022-12-06T22:16:53.162Z,41.54
2022-12-06T22:19:21.850Z,41.86
2022-12-06T22:21:50.430Z,41.68
2022-12-06T22:24:18.874Z,41.72
2022-12-06T22:26:47.595Z,41.73
2022-12-06T22:29:17.408Z,41.59
2022-12-06T22:31:46.209Z,41.99
2022-12-06T22:34:14.771Z,42.05
2022-12-06T22:36:43.286Z,41.94
2022-12-06T22:39:12.011Z,41.84
2022-12-06T22:41:40.589Z,41.97
2022-12-06T22:44:09.118Z,42.02
2022-12-06T22:46:39.269Z,41.87
2022-12-06T22:49:07.924Z,42.06
2022-12-06T22:51:37.976Z,42.00
2022-12-06T22:54:07.956Z,42.05
2022-12-06T22:56:36.667Z,41.97
2022-12-06T22:59:05.133Z,42.19
2022-12-06T23:01:35.372Z,42.09
2022-12-06T23:04:06.922Z,42.11
2022-12-06T23:06:36.152Z,41.92
2022-12-06T23:09:07.825Z,41.97
2022-12-06T23:11:37.329Z,42.13
2022-12-06T23:14:07.759Z,41.99
2022-12-06T23:16:36.603Z,42.08
2022-12-06T23:19:06.713Z,41.98
2022-12-06T23:21:36.285Z,41.86
2022-12-06T23:24:07.694Z,41.93
2022-12-06T23:26:37.762Z,41.95
2022-12-06T23:29:06.741Z,41.73
2022-12-06T23:31:36.755Z,41.86
2022-12-06T23:34:07.988Z,41.77
2022-12-06T23:36:37.156Z,41.90
2022-12-06T23:39:06.480Z,41.82
2022-12-06T23:41:37.267Z,41.69
2022-12-06T23:44:06.366Z,41.78
2022-12-06T23:46:36.869Z,41.79
2022-12-06T23:49:07.388Z,41.61
2022-12-06T23:51:37.221Z,41.72
2022-12-06T23:54:07.525Z,41.77
2022-12-06T23:56:37.376Z,41.58
2022-12-06T23:59:06.889Z,41.46
